Terminal Aerodrome Forecast
Issued by NWS Corpus Christi, TX

Home | Current Version | Previous Version | Text Only | Print | Product List | Glossary On
Versions: 1 2 3 4 5 6 7 8 9 10 11 12 13 14 15 16 17 18 19 20 21 22 23
000
FTUS44 KCRP 281137
TAFVCT
TAF
KVCT 281137Z 2812/2912 35005KT P6SM SCT015 BKN025 OVC040
      TEMPO 2812/2813 5SM -RA BKN012 OVC025
     FM281400 36015G20KT P6SM BKN025 OVC150
     FM281800 36018G25KT P6SM SCT025 BKN040
     FM290200 36010KT P6SM SCT030=

USA.gov is the U.S. government's official web portal to all federal, state and local government web resources and services.